createdAt,value
2022-10-07T00:06:25.870Z,7.3
2022-10-07T00:16:26.431Z,7.1
2022-10-07T00:26:27.210Z,7
2022-10-07T00:36:27.828Z,6.9
2022-10-07T00:46:28.005Z,6.9
2022-10-07T00:56:28.467Z,6.9
2022-10-07T01:06:28.754Z,6.8
2022-10-07T01:16:29.582Z,6.8
2022-10-07T01:26:29.675Z,6.8
2022-10-07T01:36:30.209Z,6.7
2022-10-07T01:46:30.517Z,6.7
2022-10-07T01:56:31.166Z,6.6
2022-10-07T02:06:32.114Z,6.6
2022-10-07T02:16:32.689Z,6.6
2022-10-07T02:36:34.278Z,6.5
2022-10-07T02:46:34.618Z,6.5
2022-10-07T02:56:34.905Z,6.5
2022-10-07T03:16:36.156Z,6.3
2022-10-07T03:26:36.704Z,6.2
2022-10-07T03:46:37.571Z,6.2
2022-10-07T03:56:37.903Z,6.3
2022-10-07T04:06:38.087Z,6.3
2022-10-07T04:26:39.328Z,6.3
2022-10-07T04:36:39.720Z,6.2
2022-10-07T04:46:39.970Z,6.2
2022-10-07T04:56:40.790Z,6.1
2022-10-07T05:06:41.513Z,6.1
2022-10-07T05:16:41.703Z,6
2022-10-07T05:26:42.297Z,5.8
2022-10-07T05:36:42.585Z,5.8
2022-10-07T06:06:43.340Z,5.8
2022-10-07T06:26:44.207Z,6.1
2022-10-07T06:36:44.412Z,6.2
2022-10-07T06:46:44.807Z,6.5
2022-10-07T06:56:45.123Z,6.8
2022-10-07T07:06:45.188Z,7.2
2022-10-07T07:26:46.215Z,8.9
2022-10-07T07:36:46.287Z,10
2022-10-07T07:46:46.438Z,11
2022-10-07T07:56:46.966Z,11.8
2022-10-07T08:06:47.145Z,12.5
2022-10-07T08:16:48.178Z,12.9
2022-10-07T08:26:48.613Z,13.5
2022-10-07T08:36:49.236Z,14
2022-10-07T08:46:49.753Z,14.4
2022-10-07T08:56:50.011Z,14.8
2022-10-07T09:06:50.603Z,15.2
2022-10-07T09:16:50.709Z,15.7
2022-10-07T09:26:51.768Z,15.5
2022-10-07T09:36:52.339Z,15.8
2022-10-07T09:46:52.939Z,16.4
2022-10-07T09:56:53.076Z,16.6
2022-10-07T10:06:53.841Z,16.5
2022-10-07T10:16:53.924Z,16.2
2022-10-07T10:26:54.517Z,16.1
2022-10-07T10:36:55.422Z,16.4
2022-10-07T10:46:56.267Z,16.5
2022-10-07T10:56:57.054Z,16.7
2022-10-07T11:06:58.052Z,16.6
2022-10-07T11:16:59.075Z,16.8
2022-10-07T11:26:59.819Z,17.1
2022-10-07T11:37:00.225Z,17.1
2022-10-07T11:47:01.168Z,17.2
2022-10-07T11:57:01.504Z,17.8
2022-10-07T12:07:01.594Z,17.5
2022-10-07T12:27:02.819Z,17.9
2022-10-07T12:37:03.284Z,18.6
2022-10-07T12:47:03.600Z,18.4
2022-10-07T12:57:04.227Z,19
2022-10-07T13:07:04.378Z,19.3
2022-10-07T13:27:05.222Z,18.3
2022-10-07T13:37:05.278Z,18.3
2022-10-07T13:47:05.895Z,18.3
2022-10-07T14:17:08.169Z,18.1
2022-10-07T14:27:09.088Z,18.1
2022-10-07T14:37:09.893Z,18.1
2022-10-07T14:47:10.653Z,18.1
2022-10-07T14:57:10.759Z,18
2022-10-07T15:07:11.565Z,17.9
2022-10-07T15:17:12.420Z,17.9
2022-10-07T15:27:12.398Z,17.8
2022-10-07T15:37:13.054Z,17.7
2022-10-07T15:47:13.933Z,17.6
2022-10-07T15:57:14.122Z,17.4
2022-10-07T16:07:14.601Z,17.2
2022-10-07T16:27:15.749Z,16.7
2022-10-07T16:37:16.481Z,16.4
2022-10-07T16:57:17.390Z,15.6
2022-10-07T17:07:17.719Z,15.2
2022-10-07T17:17:18.514Z,14.8
2022-10-07T17:27:19.436Z,14.4
2022-10-07T17:37:19.996Z,14.1
2022-10-07T17:47:20.951Z,13.7
2022-10-07T17:57:21.602Z,13.5
2022-10-07T18:17:22.944Z,12.8
2022-10-07T18:27:23.938Z,12.5
2022-10-07T18:37:24.842Z,12.1
2022-10-07T18:47:25.872Z,11.8
2022-10-07T18:57:26.281Z,11.6
2022-10-07T19:07:26.337Z,11.4
2022-10-07T19:17:27.328Z,11.3
2022-10-07T19:57:29.490Z,10.6
2022-10-07T20:07:29.618Z,10.4
2022-10-07T20:17:29.808Z,10.2
2022-10-07T20:27:30.377Z,10.1
2022-10-07T20:37:30.498Z,9.9
2022-10-07T20:47:31.089Z,9.7
2022-10-07T20:57:32.091Z,9.6
2022-10-07T21:17:32.459Z,9.4
2022-10-07T21:37:33.519Z,9.1
2022-10-07T21:57:35.211Z,9
2022-10-07T22:17:36.577Z,8.9
2022-10-07T22:37:38.035Z,8.9
2022-10-07T23:57:41.503Z,10.5
